createdAt,value
2022-12-22T00:00:31.623Z,102012.95
2022-12-22T00:03:20.099Z,101999.88
2022-12-22T00:05:48.696Z,102014.27
2022-12-22T00:08:17.004Z,102005.45
2022-12-22T00:10:45.275Z,102011.67
2022-12-22T00:13:15.634Z,102008.02
2022-12-22T00:15:43.997Z,102012.82
2022-12-22T00:18:17.503Z,102002.25
2022-12-22T00:20:45.908Z,102002.81
2022-12-22T00:23:14.299Z,102000.59
2022-12-22T00:25:42.871Z,102003.50
2022-12-22T00:28:14.998Z,102007.55
2022-12-22T00:30:45.598Z,102007.44
2022-12-22T00:33:17.243Z,101993.95
2022-12-22T00:35:47.002Z,101989.23
2022-12-22T00:38:18.164Z,101984.80
2022-12-22T00:40:46.764Z,101984.91
2022-12-22T00:43:16.380Z,101974.64
2022-12-22T00:45:46.289Z,101973.61
2022-12-22T00:48:25.294Z,101978.71
2022-12-22T00:50:53.587Z,101979.49
2022-12-22T00:53:22.677Z,101979.88
2022-12-22T00:55:51.178Z,101985.61
2022-12-22T00:58:20.575Z,101981.81
2022-12-22T01:00:48.858Z,101983.97
2022-12-22T01:03:17.626Z,101977.73
2022-12-22T01:05:46.684Z,101980.70
2022-12-22T01:08:15.291Z,101975.47
2022-12-22T01:10:43.694Z,101979.39
2022-12-22T01:13:17.252Z,101985.17
2022-12-22T01:15:48.524Z,101982.33
2022-12-22T01:18:18.846Z,101973.11
2022-12-22T01:20:47.870Z,101960.70
2022-12-22T01:23:16.293Z,101961.95
2022-12-22T01:25:44.811Z,101955.39
2022-12-22T01:28:20.034Z,101954.75
2022-12-22T01:30:48.711Z,101958.77
2022-12-22T01:33:17.011Z,101956.05
2022-12-22T01:35:45.395Z,101955.80
2022-12-22T01:38:14.136Z,101959.51
2022-12-22T01:40:42.503Z,101962.31
2022-12-22T01:43:27.937Z,101965.77
2022-12-22T01:45:56.320Z,101961.66
2022-12-22T01:48:29.645Z,101961.52
2022-12-22T01:50:59.978Z,101965.65
2022-12-22T01:53:30.653Z,101967.08
2022-12-22T01:56:00.718Z,101971.36
2022-12-22T01:58:33.177Z,101971.10
2022-12-22T02:01:01.368Z,101976.06
2022-12-22T02:03:29.680Z,101981.98
2022-12-22T02:06:07.589Z,101980.16
2022-12-22T02:08:43.884Z,101982.80
2022-12-22T02:11:48.811Z,101988.82
2022-12-22T02:14:32.321Z,101991.79
2022-12-22T02:17:32.271Z,101998.31
2022-12-22T02:20:23.407Z,101997.80
2022-12-22T02:23:10.432Z,102000.42
2022-12-22T02:25:48.004Z,101997.23
2022-12-22T02:28:18.528Z,101993.73
2022-12-22T02:30:49.524Z,101995.16
2022-12-22T02:33:20.773Z,101995.08
2022-12-22T02:36:13.183Z,101999.83
2022-12-22T02:38:50.396Z,101994.26
2022-12-22T02:41:31.172Z,101993.36
2022-12-22T02:44:17.830Z,101994.35
2022-12-22T02:47:16.729Z,101995.19
2022-12-22T02:49:57.395Z,101990.20
2022-12-22T02:52:31.489Z,101987.55
2022-12-22T02:55:00.744Z,101993.41
2022-12-22T02:57:29.859Z,101990.46
2022-12-22T02:59:58.406Z,101998.02
2022-12-22T03:02:28.340Z,102002.59
2022-12-22T03:04:56.701Z,101996.98
2022-12-22T03:07:25.132Z,101992.75
2022-12-22T03:09:54.034Z,101985.06
2022-12-22T03:12:22.205Z,101988.39
2022-12-22T03:14:53.838Z,101989.22
2022-12-22T03:17:22.043Z,101989.40
2022-12-22T03:19:50.642Z,101997.11
2022-12-22T03:22:18.919Z,101997.45
2022-12-22T03:24:47.096Z,101996.21
2022-12-22T03:27:16.910Z,102000.11
2022-12-22T03:29:45.569Z,101998.28
2022-12-22T03:32:14.025Z,102002.04
2022-12-22T03:34:42.394Z,102008.73
2022-12-22T03:37:10.846Z,102011.67
2022-12-22T03:39:42.073Z,102014.02
2022-12-22T03:42:13.775Z,102005.50
2022-12-22T03:44:41.902Z,102001.60
2022-12-22T03:47:10.034Z,102001.96
2022-12-22T03:49:40.390Z,101997.15
2022-12-22T03:52:08.601Z,101999.07
2022-12-22T03:54:36.783Z,101997.53
2022-12-22T03:57:05.026Z,102001.20
2022-12-22T03:59:33.412Z,102003.73
2022-12-22T04:02:01.929Z,102000.05
2022-12-22T04:04:30.424Z,102000.16
2022-12-22T04:06:59.228Z,101996.73
2022-12-22T04:09:27.524Z,101996.95
2022-12-22T04:11:56.174Z,101996.05
2022-12-22T04:14:29.807Z,101999.92
2022-12-22T04:17:02.853Z,101999.85
2022-12-22T04:19:31.564Z,101996.59
2022-12-22T04:22:00.168Z,101988.94
2022-12-22T04:24:30.737Z,101983.48
2022-12-22T04:26:59.206Z,101979.40
2022-12-22T04:29:27.297Z,101981.95
2022-12-22T04:31:55.674Z,101983.02
2022-12-22T04:34:24.883Z,101987.86
2022-12-22T04:36:53.385Z,101992.08
2022-12-22T04:39:21.749Z,102000.26
2022-12-22T04:41:49.923Z,101997.08
2022-12-22T04:44:18.910Z,101997.63
2022-12-22T04:46:47.300Z,101995.36
2022-12-22T04:49:15.616Z,102005.66
2022-12-22T04:51:44.289Z,102005.45
2022-12-22T04:54:12.520Z,102004.98
2022-12-22T04:56:40.784Z,102004.08
2022-12-22T04:59:08.978Z,102004.95
2022-12-22T05:01:37.201Z,102012.48
2022-12-22T05:04:05.609Z,102015.23
2022-12-22T05:06:34.721Z,102018.08
2022-12-22T05:09:03.173Z,102016.66
2022-12-22T05:11:31.498Z,102015.30
2022-12-22T05:14:05.338Z,102008.50
2022-12-22T05:16:36.585Z,102012.17
2022-12-22T05:19:05.401Z,102012.95
2022-12-22T05:21:34.962Z,102016.50
2022-12-22T05:24:03.507Z,102016.67
2022-12-22T05:26:31.577Z,102010.28
2022-12-22T05:28:59.737Z,102008.88
2022-12-22T05:31:28.104Z,102004.67
2022-12-22T05:33:56.688Z,102007.48
2022-12-22T05:36:24.933Z,102017.23
2022-12-22T05:38:53.348Z,102019.06
2022-12-22T05:41:21.656Z,102017.33
2022-12-22T05:43:50.858Z,102018.56
2022-12-22T05:46:19.305Z,102023.13
2022-12-22T05:48:48.445Z,102025.37
2022-12-22T05:51:16.793Z,102019.27
2022-12-22T05:53:45.473Z,102024.02
2022-12-22T05:56:13.588Z,102028.52
2022-12-22T05:58:41.704Z,102027.42
2022-12-22T06:01:10.648Z,102034.27
2022-12-22T06:03:39.089Z,102033.91
2022-12-22T06:06:07.926Z,102031.86
2022-12-22T06:08:36.465Z,102030.36
2022-12-22T06:11:04.712Z,102030.30
2022-12-22T06:13:32.923Z,102031.16
2022-12-22T06:16:01.150Z,102033.01
2022-12-22T06:18:29.336Z,102037.13
2022-12-22T06:20:57.476Z,102025.09
2022-12-22T06:23:27.010Z,102031.36
2022-12-22T06:26:00.439Z,102038.75
2022-12-22T06:28:29.400Z,102035.56
2022-12-22T06:30:57.850Z,102037.85
2022-12-22T06:33:26.097Z,102043.06
2022-12-22T06:35:58.946Z,102048.29
2022-12-22T06:38:28.704Z,102046.23
2022-12-22T06:40:57.244Z,102044.58
2022-12-22T06:43:26.308Z,102047.67
2022-12-22T06:45:54.652Z,102051.42
2022-12-22T06:48:24.532Z,102054.90
2022-12-22T06:50:58.073Z,102055.08
2022-12-22T06:53:27.892Z,102059.77
2022-12-22T06:55:56.062Z,102068.33
2022-12-22T06:58:24.269Z,102063.30
2022-12-22T07:00:56.814Z,102066.21
2022-12-22T07:03:25.269Z,102058.16
2022-12-22T07:05:53.996Z,102052.77
2022-12-22T07:08:24.175Z,102051.33
2022-12-22T07:10:52.334Z,102050.99
2022-12-22T07:13:20.534Z,102052.52
2022-12-22T07:15:59.543Z,102052.87
2022-12-22T07:18:34.803Z,102054.60
2022-12-22T07:21:06.306Z,102058.80
2022-12-22T07:23:36.824Z,102071.91
2022-12-22T07:26:08.038Z,102080.34
2022-12-22T07:28:38.333Z,102077.95
2022-12-22T07:31:07.565Z,102084.44
2022-12-22T07:33:37.314Z,102085.36
2022-12-22T07:36:08.755Z,102090.78
2022-12-22T07:38:40.347Z,102097.66
2022-12-22T07:41:10.291Z,102103.26
2022-12-22T07:43:38.831Z,102104.67
2022-12-22T07:46:07.345Z,102112.02
2022-12-22T07:48:36.105Z,102116.70
2022-12-22T07:51:06.485Z,102116.81
2022-12-22T07:53:35.150Z,102120.63
2022-12-22T07:56:05.204Z,102129.76
2022-12-22T07:58:33.806Z,102134.48
2022-12-22T08:01:03.137Z,102134.80
2022-12-22T08:03:31.266Z,102134.34
2022-12-22T08:05:59.583Z,102131.23
2022-12-22T08:08:27.642Z,102126.48
2022-12-22T08:10:55.844Z,102119.88
2022-12-22T08:13:24.103Z,102121.00
2022-12-22T08:15:52.566Z,102120.28
2022-12-22T08:18:21.217Z,102130.48
2022-12-22T08:20:52.707Z,102131.56
2022-12-22T08:23:20.797Z,102127.13
2022-12-22T08:25:55.701Z,102134.93
2022-12-22T08:28:24.271Z,102138.91
2022-12-22T08:30:52.540Z,102136.70
2022-12-22T08:33:21.767Z,102140.06
2022-12-22T08:35:49.926Z,102146.06
2022-12-22T08:38:18.275Z,102151.67
2022-12-22T08:40:47.900Z,102164.15
2022-12-22T08:43:17.375Z,102167.83
2022-12-22T08:45:45.711Z,102165.44
2022-12-22T08:48:13.960Z,102168.42
2022-12-22T08:50:42.296Z,102158.86
2022-12-22T08:53:29.741Z,102157.27
2022-12-22T08:55:58.849Z,102158.36
2022-12-22T08:58:27.044Z,102163.41
2022-12-22T09:00:55.266Z,102171.98
2022-12-22T09:03:26.775Z,102175.59
2022-12-22T09:06:03.804Z,102184.62
2022-12-22T09:08:32.197Z,102188.80
2022-12-22T09:11:04.691Z,102193.92
2022-12-22T09:13:33.032Z,102196.61
2022-12-22T09:16:09.721Z,102202.52
2022-12-22T09:18:38.231Z,102203.46
2022-12-22T09:21:06.340Z,102204.52
2022-12-22T09:23:34.571Z,102207.18
2022-12-22T09:26:11.318Z,102203.95
2022-12-22T09:28:42.623Z,102202.35
2022-12-22T09:31:16.193Z,102206.39
2022-12-22T09:33:44.956Z,102208.33
2022-12-22T09:36:15.980Z,102198.64
2022-12-22T09:38:44.604Z,102205.91
2022-12-22T09:41:25.470Z,102207.73
2022-12-22T09:43:56.386Z,102206.98
2022-12-22T09:46:28.923Z,102208.60
2022-12-22T09:48:58.270Z,102207.34
2022-12-22T09:51:27.682Z,102208.16
2022-12-22T09:54:00.865Z,102202.83
2022-12-22T09:56:29.674Z,102196.85
2022-12-22T09:58:57.887Z,102193.85
2022-12-22T10:01:54.037Z,102195.64
2022-12-22T10:04:28.414Z,102192.13
2022-12-22T10:07:10.012Z,102184.35
2022-12-22T10:09:53.429Z,102176.11
2022-12-22T10:12:24.509Z,102175.83
2022-12-22T10:14:54.595Z,102172.42
2022-12-22T10:17:28.016Z,102163.54
2022-12-22T10:20:26.597Z,102160.58
2022-12-22T10:22:58.845Z,102153.23
2022-12-22T10:26:25.872Z,102150.77
2022-12-22T10:28:39.152Z,102141.63
2022-12-22T10:31:15.140Z,102144.67
2022-12-22T10:33:47.471Z,102136.02
2022-12-22T10:36:22.374Z,102136.35
2022-12-22T10:39:09.379Z,102136.63
2022-12-22T10:41:44.008Z,102131.81
2022-12-22T10:44:26.335Z,102131.20
2022-12-22T10:46:57.897Z,102129.19
2022-12-22T10:52:29.440Z,102116.65
2022-12-22T10:55:20.056Z,102113.27
2022-12-22T10:57:49.497Z,102106.30
2022-12-22T11:00:28.414Z,102107.85
2022-12-22T11:03:02.006Z,102092.75
2022-12-22T11:05:32.369Z,102080.46
2022-12-22T11:08:12.878Z,102072.55
2022-12-22T11:11:07.462Z,102063.02
2022-12-22T11:14:04.301Z,102063.04
2022-12-22T11:16:32.778Z,102068.00
2022-12-22T11:19:02.370Z,102071.58
2022-12-22T11:21:56.341Z,102069.05
2022-12-22T11:24:58.711Z,102064.25
2022-12-22T11:27:45.576Z,102062.77
2022-12-22T11:30:19.889Z,102060.02
2022-12-22T11:33:32.328Z,102057.09
2022-12-22T11:36:09.813Z,102053.77
2022-12-22T11:39:17.554Z,102052.52
2022-12-22T11:42:00.835Z,102048.95
2022-12-22T11:45:01.894Z,102051.46
2022-12-22T11:47:47.374Z,102046.10
2022-12-22T11:50:59.305Z,102037.20
2022-12-22T11:53:49.472Z,102034.73
2022-12-22T11:56:25.647Z,102032.94
2022-12-22T11:59:01.031Z,102026.77
2022-12-22T12:01:44.242Z,102024.77
2022-12-22T12:04:50.419Z,102019.66
2022-12-22T12:07:31.962Z,102013.41
2022-12-22T12:10:25.153Z,102014.20
2022-12-22T12:13:18.074Z,102008.64
2022-12-22T12:16:01.986Z,102005.65
2022-12-22T12:18:43.495Z,102001.66
2022-12-22T12:21:29.929Z,102002.09
2022-12-22T12:24:17.282Z,101997.45
2022-12-22T12:27:22.555Z,101995.24
2022-12-22T12:30:36.858Z,101985.38
2022-12-22T12:32:58.689Z,101981.23
2022-12-22T12:35:45.894Z,101981.42
2022-12-22T12:39:06.371Z,101982.70
2022-12-22T12:41:43.341Z,101978.27
2022-12-22T12:44:19.432Z,101968.45
2022-12-22T12:46:56.131Z,101961.52
2022-12-22T12:49:36.856Z,101960.14
2022-12-22T12:52:11.757Z,101953.95
2022-12-22T12:54:46.140Z,101951.10
2022-12-22T12:57:46.202Z,101939.80
2022-12-22T13:00:33.490Z,101935.77
2022-12-22T13:04:01.281Z,101933.45
2022-12-22T13:06:50.563Z,101931.89
2022-12-22T13:12:40.917Z,101919.52
2022-12-22T13:15:32.095Z,101918.71
2022-12-22T13:18:03.042Z,101918.79
2022-12-22T13:21:34.439Z,101921.11
2022-12-22T13:24:23.008Z,101922.03
2022-12-22T13:26:49.473Z,101918.09
2022-12-22T13:29:28.526Z,101911.46
2022-12-22T13:32:05.155Z,101915.40
2022-12-22T13:35:20.105Z,101906.95
2022-12-22T13:37:41.862Z,101909.98
2022-12-22T13:40:23.616Z,101911.18
2022-12-22T13:42:53.562Z,101908.66
2022-12-22T13:45:33.206Z,101904.98
2022-12-22T13:48:06.553Z,101906.11
2022-12-22T13:50:44.017Z,101909.65
2022-12-22T13:53:42.310Z,101910.53
2022-12-22T13:56:12.531Z,101911.73
2022-12-22T13:58:43.548Z,101906.36
2022-12-22T14:01:11.771Z,101908.09
2022-12-22T14:04:00.014Z,101905.23
2022-12-22T14:06:37.603Z,101906.63
2022-12-22T14:09:19.172Z,101909.46
2022-12-22T14:11:52.993Z,101912.44
2022-12-22T14:14:29.089Z,101909.94
2022-12-22T14:16:59.892Z,101912.04
2022-12-22T14:19:33.968Z,101909.77
2022-12-22T14:22:26.730Z,101911.66
2022-12-22T14:25:01.112Z,101914.14
2022-12-22T14:27:40.410Z,101918.23
2022-12-22T14:30:21.340Z,101917.70
2022-12-22T14:32:55.500Z,101923.76
2022-12-22T14:35:28.711Z,101921.94
2022-12-22T14:38:03.021Z,101918.60
2022-12-22T14:40:34.378Z,101923.45
2022-12-22T14:43:07.225Z,101931.08
2022-12-22T14:45:35.438Z,101930.48
2022-12-22T14:48:09.227Z,101929.67
2022-12-22T14:50:37.626Z,101924.73
2022-12-22T14:53:06.056Z,101927.56
2022-12-22T14:55:42.226Z,101925.95
2022-12-22T14:58:10.352Z,101924.02
2022-12-22T15:00:44.413Z,101921.84
2022-12-22T15:03:25.075Z,101926.90
2022-12-22T15:05:53.547Z,101924.85
2022-12-22T15:08:42.846Z,101931.88
2022-12-22T15:11:20.436Z,101931.41
2022-12-22T15:13:52.038Z,101930.27
2022-12-22T15:16:24.866Z,101933.02
2022-12-22T15:18:53.569Z,101937.76
2022-12-22T15:21:22.051Z,101937.94
2022-12-22T15:23:50.341Z,101944.73
2022-12-22T15:26:18.551Z,101955.85
2022-12-22T15:28:46.854Z,101957.88
2022-12-22T15:31:17.593Z,101957.98
2022-12-22T15:33:46.311Z,101959.75
2022-12-22T15:36:15.090Z,101955.52
2022-12-22T15:38:43.739Z,101960.77
2022-12-22T15:41:11.953Z,101967.66
2022-12-22T15:43:58.442Z,101970.73
2022-12-22T15:46:27.278Z,101974.29
2022-12-22T15:48:55.609Z,101977.38
2022-12-22T15:51:30.149Z,101980.58
2022-12-22T15:53:59.637Z,101980.96
2022-12-22T15:56:31.513Z,101978.77
2022-12-22T15:59:01.837Z,101976.07
2022-12-22T16:01:30.259Z,101981.49
2022-12-22T16:03:58.634Z,101976.76
2022-12-22T16:06:27.191Z,101975.31
2022-12-22T16:08:55.743Z,101978.85
2022-12-22T16:11:23.995Z,101981.45
2022-12-22T16:13:53.026Z,101988.20
2022-12-22T16:16:21.593Z,101986.86
2022-12-22T16:18:50.268Z,101987.55
2022-12-22T16:21:21.689Z,101993.23
2022-12-22T16:23:51.608Z,101998.80
2022-12-22T16:26:21.538Z,101999.54
2022-12-22T16:28:49.876Z,102001.07
2022-12-22T16:31:23.570Z,101993.07
2022-12-22T16:33:52.817Z,101992.50
2022-12-22T16:36:22.231Z,101995.00
2022-12-22T16:38:51.053Z,102001.88
2022-12-22T16:41:23.958Z,101998.76
2022-12-22T16:46:41.660Z,101991.15
2022-12-22T16:49:10.362Z,101992.65
2022-12-22T16:51:48.390Z,101990.92
2022-12-22T16:54:17.233Z,101994.64
2022-12-22T16:56:45.467Z,101995.00
2022-12-22T16:59:14.199Z,102005.11
2022-12-22T17:01:52.908Z,102011.01
2022-12-22T17:04:32.479Z,102011.31
2022-12-22T17:07:02.600Z,102012.28
2022-12-22T17:09:43.841Z,102011.45
2022-12-22T17:12:26.607Z,102015.02
2022-12-22T17:14:56.618Z,102014.20
2022-12-22T17:17:31.903Z,102015.10
2022-12-22T17:20:02.286Z,102014.21
2022-12-22T17:22:32.791Z,102014.56
2022-12-22T17:25:05.485Z,102015.67
2022-12-22T17:27:35.340Z,102015.10
2022-12-22T17:30:04.688Z,102019.54
2022-12-22T17:32:32.922Z,102016.22
2022-12-22T17:35:01.220Z,102020.90
2022-12-22T17:37:29.680Z,102021.45
2022-12-22T17:40:01.858Z,102023.79
2022-12-22T17:42:32.240Z,102029.29
2022-12-22T17:45:00.705Z,102028.05
2022-12-22T17:47:34.653Z,102028.55
2022-12-22T17:50:11.223Z,102032.09
2022-12-22T17:52:40.202Z,102037.05
2022-12-22T17:55:49.782Z,102037.10
2022-12-22T17:58:14.756Z,102039.27
2022-12-22T18:00:43.399Z,102035.70
2022-12-22T18:03:15.941Z,102038.81
2022-12-22T18:05:47.041Z,102040.78
2022-12-22T18:08:20.693Z,102033.34
2022-12-22T18:10:49.984Z,102032.23
2022-12-22T18:13:22.695Z,102036.52
2022-12-22T18:15:51.053Z,102039.02
2022-12-22T18:18:19.480Z,102033.67
2022-12-22T18:21:05.747Z,102028.70
2022-12-22T18:23:37.029Z,102032.72
2022-12-22T18:26:07.181Z,102029.52
2022-12-22T18:28:36.064Z,102029.23
2022-12-22T18:31:04.742Z,102021.52
2022-12-22T18:33:33.602Z,102023.19
2022-12-22T18:36:02.539Z,102017.06
2022-12-22T18:38:34.056Z,102013.85
2022-12-22T18:41:04.157Z,102010.48
2022-12-22T18:43:32.510Z,102013.80
2022-12-22T18:46:01.063Z,102020.45
2022-12-22T18:48:29.452Z,102026.50
2022-12-22T18:50:57.755Z,102035.58
2022-12-22T18:53:31.955Z,102042.23
2022-12-22T18:56:00.469Z,102050.59
2022-12-22T18:58:28.678Z,102063.59
2022-12-22T19:00:57.296Z,102063.30
2022-12-22T19:03:28.136Z,102071.35
2022-12-22T19:05:57.857Z,102074.11
2022-12-22T19:08:27.769Z,102070.01
2022-12-22T19:11:04.019Z,102074.80
2022-12-22T19:13:43.349Z,102081.09
2022-12-22T19:16:18.384Z,102097.95
2022-12-22T19:18:46.591Z,102102.92
2022-12-22T19:21:16.974Z,102101.96
2022-12-22T19:23:45.640Z,102098.02
2022-12-22T19:26:23.370Z,102094.89
2022-12-22T19:28:54.766Z,102094.43
2022-12-22T19:31:29.470Z,102096.22
2022-12-22T19:34:04.494Z,102091.95
2022-12-22T19:36:33.051Z,102093.05
2022-12-22T19:39:05.149Z,102098.31
2022-12-22T19:41:43.548Z,102100.30
2022-12-22T19:44:16.245Z,102096.20
2022-12-22T19:46:45.285Z,102085.80
2022-12-22T19:49:18.842Z,102076.48
2022-12-22T19:51:47.565Z,102065.86
2022-12-22T19:54:16.524Z,102060.69
2022-12-22T19:56:48.909Z,102058.73
2022-12-22T19:59:45.868Z,102054.64
2022-12-22T20:02:32.914Z,102051.98
2022-12-22T20:05:01.154Z,102050.13
2022-12-22T20:07:30.773Z,102048.98
2022-12-22T20:09:59.154Z,102051.45
2022-12-22T20:12:36.588Z,102046.61
2022-12-22T20:15:29.411Z,102053.13
2022-12-22T20:17:58.419Z,102050.73
2022-12-22T20:20:26.579Z,102056.40
2022-12-22T20:22:57.649Z,102048.48
2022-12-22T20:25:28.405Z,102046.30
2022-12-22T20:27:57.068Z,102048.84
2022-12-22T20:30:28.589Z,102053.89
2022-12-22T20:32:57.454Z,102055.84
2022-12-22T20:35:25.835Z,102060.17
2022-12-22T20:37:54.457Z,102057.31
2022-12-22T20:40:29.547Z,102054.08
2022-12-22T20:42:58.786Z,102057.61
2022-12-22T20:45:29.871Z,102058.59
2022-12-22T20:48:01.267Z,102058.88
2022-12-22T20:50:31.000Z,102061.46
2022-12-22T20:52:59.252Z,102063.02
2022-12-22T20:55:29.057Z,102064.81
2022-12-22T20:57:58.251Z,102067.34
2022-12-22T21:00:28.617Z,102073.04
2022-12-22T21:02:56.928Z,102076.23
2022-12-22T21:05:25.696Z,102074.77
2022-12-22T21:07:54.158Z,102074.41
2022-12-22T21:10:25.015Z,102074.75
2022-12-22T21:12:53.437Z,102073.17
2022-12-22T21:15:26.926Z,102072.45
2022-12-22T21:17:58.510Z,102078.36
2022-12-22T21:20:30.349Z,102079.48
2022-12-22T21:22:58.584Z,102080.83
2022-12-22T21:25:26.981Z,102082.48
2022-12-22T21:27:56.411Z,102081.00
2022-12-22T21:30:27.178Z,102076.86
2022-12-22T21:32:56.327Z,102074.90
2022-12-22T21:35:28.996Z,102067.50
2022-12-22T21:37:59.317Z,102063.17
2022-12-22T21:40:29.956Z,102068.92
2022-12-22T21:42:59.012Z,102064.35
2022-12-22T21:45:31.727Z,102058.73
2022-12-22T21:48:00.064Z,102060.77
2022-12-22T21:50:34.130Z,102062.46
2022-12-22T21:53:02.378Z,102050.83
2022-12-22T21:55:31.570Z,102049.39
2022-12-22T21:58:01.054Z,102048.99
2022-12-22T22:00:30.429Z,102053.91
2022-12-22T22:03:00.729Z,102050.23
2022-12-22T22:05:35.736Z,102053.21
2022-12-22T22:08:07.026Z,102057.49
2022-12-22T22:10:40.434Z,102057.10
2022-12-22T22:13:11.753Z,102057.69
2022-12-22T22:15:40.105Z,102062.59
2022-12-22T22:18:15.296Z,102061.05
2022-12-22T22:20:44.144Z,102059.14
2022-12-22T22:23:14.298Z,102057.64
2022-12-22T22:25:42.424Z,102060.00
2022-12-22T22:28:12.000Z,102061.52
2022-12-22T22:30:41.263Z,102052.47
2022-12-22T22:33:10.655Z,102053.52
2022-12-22T22:35:41.123Z,102050.83
2022-12-22T22:38:17.761Z,102053.12
2022-12-22T22:40:48.674Z,102056.22
2022-12-22T22:43:16.892Z,102055.20
2022-12-22T22:45:46.601Z,102053.16
2022-12-22T22:48:21.323Z,102051.72
2022-12-22T22:50:49.991Z,102050.56
2022-12-22T22:53:18.315Z,102051.93
2022-12-22T22:55:46.598Z,102051.17
2022-12-22T22:58:15.581Z,102051.59
2022-12-22T23:00:43.822Z,102052.34
2022-12-22T23:03:12.176Z,102047.80
2022-12-22T23:05:40.388Z,102049.33
2022-12-22T23:08:08.837Z,102051.77
2022-12-22T23:10:41.543Z,102050.11
2022-12-22T23:13:10.316Z,102053.02
2022-12-22T23:15:38.647Z,102048.70
2022-12-22T23:18:07.112Z,102043.16
2022-12-22T23:20:35.462Z,102038.56
2022-12-22T23:23:03.645Z,102035.23
2022-12-22T23:25:31.793Z,102028.59
2022-12-22T23:27:59.933Z,102026.14
2022-12-22T23:30:28.134Z,102021.59
2022-12-22T23:32:56.177Z,102019.20
2022-12-22T23:35:24.358Z,102024.16
2022-12-22T23:37:52.633Z,102015.88
2022-12-22T23:43:11.213Z,102013.22
2022-12-22T23:45:40.804Z,102013.25
2022-12-22T23:48:09.655Z,102008.70
2022-12-22T23:50:37.857Z,102005.97
2022-12-22T23:53:06.075Z,102002.81
2022-12-22T23:55:34.404Z,101998.27
2022-12-22T23:58:03.178Z,102001.92
